L'image de la webcam se met à jour toutes les 30s.
La jauge météo se met à jour toutes les 10s d'après les données envoyées par la station météo du club.
Les graphiques se mettent à jour toutes les 5min et ne s'affichent que si la station est en ligne
Surfaces en herbe peu praticables..
MAJ le 20/11/2022 11h00 DDE
METAR de LFRD (Source NOAA)
LFRD 271930Z AUTO 22005KT 9999 SCT037 BKN049 OVC220 10/10 Q1012 TEMPO 3000 SHRA BKN009 BKN015CB

TAF de LFRD (Source NOAA)
TAF LFRD 271700Z 2718/2818 VRB05KT 9999 BKN030 PROB40 TEMPO 2718/2721 3000 SHRA BKN009 BKN015CB BECMG 2720/2722 25010KT BECMG 2802/2804 19010KT TEMPO 2805/2818 VRB15G25KT 3000 SHRA BKN012CB BECMG 2809/2811 25010KT BECMG 2813/2815 29015G25KT PROB40 TEMPO 2813/2818 VRB20G35KT 2000 TSRAGS
Ayez la webcam en fond d'écran de votre téléphone ou de votre tablette Android avec l'appli du club.